Terminal Aerodrome Forecast
Issued by NWS

Home | Current Version | Previous Version | Graphics & Text | Print | Product List | Glossary On
Versions: 1 2 3 4 5 6 7 8 9 10 11 12 13 14
586
FTUS43 KMPX 241139
TAFRWF
TAF
KRWF 241139Z 2412/2512 35005KT P6SM OVC060
     FM241600 04007KT P6SM BKN040
     FM242200 07005KT P6SM SCT070
     FM250400 12005KT P6SM FEW200=

USA.gov is the U.S. government's official web portal to all federal, state and local government web resources and services.